Time;durP1;ratioP1;P1;durP2;ratioP2;P2;SDS_P1;SDS_P2;PMS_P1;PMS_P2;Temp;Humidity;BMP_temperature;BMP_pressure;BME280_temperature;BME280_humidity;BME280_pressure;Samples;Min_cycle;Max_cycle;Signal;HPM_P1;HPM_P2
2022/05/03 00:00:09;;;;;;;7.07;5.03;;;;;;;;;;5013932;28;20046;-65
2022/05/03 00:02:35;;;;;;;7.65;4.82;;;;;;;;;;5013144;28;20046;-65
2022/05/03 00:05:07;;;;;;;8.85;5.55;;;;;;;;;;5013868;28;20532;-65
2022/05/03 00:07:42;;;;;;;8.27;5.25;;;;;;;;;;5013982;28;20050;-65
2022/05/03 00:10:10;;;;;;;7.45;4.95;;;;;;;;;;5013284;28;20049;-65
2022/05/03 00:12:40;;;;;;;6.53;5.05;;;;;;;;;;5013902;28;20121;-65
2022/05/03 00:15:08;;;;;;;10.70;5.20;;;;;;;;;;5013927;28;20049;-65
2022/05/03 00:17:34;;;;;;;6.90;5.38;;;;;;;;;;5012921;28;20088;-65
2022/05/03 00:20:01;;;;;;;7.85;5.53;;;;;;;;;;5013863;28;20042;-65
2022/05/03 00:22:28;;;;;;;6.57;5.30;;;;;;;;;;5013847;28;20041;-65
2022/05/03 00:24:54;;;;;;;8.02;5.50;;;;;;;;;;5013072;28;20362;-65
2022/05/03 00:27:25;;;;;;;10.77;5.63;;;;;;;;;;5013766;28;20124;-65
2022/05/03 00:29:55;;;;;;;7.72;5.60;;;;;;;;;;5013603;28;20049;-65
2022/05/03 00:32:22;;;;;;;7.82;5.68;;;;;;;;;;5012883;28;20458;-65
2022/05/03 00:34:48;;;;;;;6.43;5.05;;;;;;;;;;5013617;28;20042;-65
2022/05/03 00:37:14;;;;;;;6.95;5.43;;;;;;;;;;5013105;28;20044;-65
2022/05/03 00:39:41;;;;;;;10.32;5.65;;;;;;;;;;5012569;28;20042;-65
2022/05/03 00:42:11;;;;;;;8.43;5.15;;;;;;;;;;5013368;28;20140;-65
2022/05/03 00:45:01;;;;;;;6.28;5.00;;;;;;;;;;5028588;28;20041;-65
2022/05/03 00:47:29;;;;;;;8.30;5.60;;;;;;;;;;4982643;28;20061;-65
2022/05/03 00:50:02;;;;;;;8.43;5.57;;;;;;;;;;5013111;28;20046;-65
2022/05/03 00:52:29;;;;;;;9.40;5.75;;;;;;;;;;5012854;28;20129;-65
2022/05/03 00:55:14;;;;;;;9.52;5.85;;;;;;;;;;5012599;28;20033;-65
2022/05/03 00:58:04;;;;;;;7.70;5.80;;;;;;;;;;5012583;28;20144;-65
2022/05/03 01:00:32;;;;;;;7.82;5.32;;;;;;;;;;5013083;28;20038;-65
2022/05/03 01:03:05;;;;;;;7.82;5.80;;;;;;;;;;5012383;28;20057;-65
2022/05/03 01:05:50;;;;;;;9.40;5.47;;;;;;;;;;5012662;28;20061;-65
2022/05/03 01:08:45;;;;;;;7.93;5.43;;;;;;;;;;5012819;28;20053;-65
2022/05/03 01:11:30;;;;;;;8.23;5.55;;;;;;;;;;4999624;28;20420;-65
2022/05/03 01:14:02;;;;;;;8.63;5.97;;;;;;;;;;5012801;28;20077;-65
2022/05/03 01:16:47;;;;;;;9.80;6.18;;;;;;;;;;5011954;28;20045;-65
2022/05/03 01:19:32;;;;;;;7.68;5.60;;;;;;;;;;5012552;28;20121;-65
2022/05/03 01:22:04;;;;;;;9.98;6.55;;;;;;;;;;5012743;28;20416;-65
2022/05/03 01:24:36;;;;;;;9.80;5.90;;;;;;;;;;5010882;28;20184;-65
2022/05/03 01:27:17;;;;;;;8.63;5.70;;;;;;;;;;5012534;28;20045;-65
2022/05/03 01:29:46;;;;;;;9.30;5.85;;;;;;;;;;5012345;28;20050;-65
2022/05/03 01:32:12;;;;;;;7.63;5.85;;;;;;;;;;5011775;28;20049;-65
2022/05/03 01:34:38;;;;;;;10.00;6.72;;;;;;;;;;5012427;28;20034;-65
2022/05/03 01:37:15;;;;;;;10.68;6.85;;;;;;;;;;5012332;28;20364;-65
2022/05/03 01:39:44;;;;;;;8.73;6.18;;;;;;;;;;5011480;28;20077;-65
2022/05/03 01:42:14;;;;;;;9.25;6.43;;;;;;;;;;5012324;28;20053;-65
2022/05/03 01:44:45;;;;;;;8.73;6.78;;;;;;;;;;5012270;28;20046;-65
2022/05/03 01:47:23;;;;;;;10.38;6.57;;;;;;;;;;5011643;28;20477;-65
2022/05/03 01:50:20;;;;;;;8.82;6.40;;;;;;;;;;5012119;28;20060;-65
2022/05/03 01:52:53;;;;;;;10.55;6.32;;;;;;;;;;5012022;28;20050;-65
2022/05/03 01:55:19;;;;;;;;;;;;;;;;;;5011886;28;20505;-65
2022/05/03 01:58:04;;;;;;;10.98;6.07;;;;;;;;;;5011015;28;20012;-65
2022/05/03 02:00:34;;;;;;;8.32;6.20;;;;;;;;;;5011524;28;20073;-65
2022/05/03 02:03:07;;;;;;;10.35;6.72;;;;;;;;;;5012051;28;20052;-65
2022/05/03 02:05:36;;;;;;;8.70;5.88;;;;;;;;;;5025951;28;20555;-65
2022/05/03 02:08:02;;;;;;;7.93;5.88;;;;;;;;;;5011141;28;20045;-65
2022/05/03 02:10:36;;;;;;;10.07;6.53;;;;;;;;;;5010708;28;20491;-65
2022/05/03 02:13:06;;;;;;;9.77;6.38;;;;;;;;;;5012011;28;20052;-65
2022/05/03 02:15:43;;;;;;;9.65;5.95;;;;;;;;;;5011251;28;20060;-65
2022/05/03 02:18:25;;;;;;;8.68;6.35;;;;;;;;;;5011737;28;20087;-65
2022/05/03 02:21:10;;;;;;;9.05;6.00;;;;;;;;;;5012010;28;20042;-65
2022/05/03 02:24:12;;;;;;;8.60;6.60;;;;;;;;;;5010952;28;20038;-65
2022/05/03 02:27:01;;;;;;;9.10;6.47;;;;;;;;;;4950670;29;20042;-65
2022/05/03 02:29:31;;;;;;;13.48;7.07;;;;;;;;;;4998741;28;20133;-65
2022/05/03 02:32:04;;;;;;;8.82;6.65;;;;;;;;;;5010664;28;20046;-65
2022/05/03 02:34:46;;;;;;;10.10;6.55;;;;;;;;;;5011665;28;20038;-65
2022/05/03 02:37:19;;;;;;;8.98;5.97;;;;;;;;;;5011641;28;20041;-65
2022/05/03 02:39:52;;;;;;;9.63;6.30;;;;;;;;;;5011069;28;20038;-65
2022/05/03 02:42:19;;;;;;;11.75;6.97;;;;;;;;;;5011475;28;20038;-65
2022/05/03 02:44:46;;;;;;;8.48;6.47;;;;;;;;;;5011592;28;20461;-65
2022/05/03 02:47:33;;;;;;;11.10;7.00;;;;;;;;;;5011236;28;20064;-65
2022/05/03 02:50:05;;;;;;;11.45;7.05;;;;;;;;;;4981074;28;20046;-65
2022/05/03 02:52:49;;;;;;;9.75;6.95;;;;;;;;;;5010535;28;20046;-65
2022/05/03 02:55:41;;;;;;;9.90;6.95;;;;;;;;;;5011524;28;20096;-65
2022/05/03 02:58:10;;;;;;;11.00;6.88;;;;;;;;;;4988422;28;20057;-65
2022/05/03 03:03:27;;;;;;;7.63;5.50;;;;;;;;;;5011501;28;20073;-65
2022/05/03 03:06:01;;;;;;;9.70;6.10;;;;;;;;;;5011328;28;20076;-65
2022/05/03 03:08:35;;;;;;;12.55;6.90;;;;;;;;;;5010478;28;20052;-65
2022/05/03 03:11:03;;;;;;;8.60;6.68;;;;;;;;;;5014550;28;20042;-65
2022/05/03 03:13:44;;;;;;;8.70;6.60;;;;;;;;;;5015165;28;20125;-65
2022/05/03 03:16:13;;;;;;;10.57;7.53;;;;;;;;;;5014368;28;20537;-65
2022/05/03 03:18:41;;;;;;;12.65;7.80;;;;;;;;;;5014718;28;20033;-65
2022/05/03 03:21:09;;;;;;;11.63;7.15;;;;;;;;;;5015037;28;20373;-65
2022/05/03 03:23:35;;;;;;;11.60;7.45;;;;;;;;;;5014314;28;20044;-65
2022/05/03 03:26:02;;;;;;;9.68;7.50;;;;;;;;;;5014624;28;20046;-65
2022/05/03 03:28:29;;;;;;;9.25;7.00;;;;;;;;;;5029971;28;20121;-65
2022/05/03 03:30:56;;;;;;;10.18;7.32;;;;;;;;;;5014180;28;20091;-65
2022/05/03 03:33:22;;;;;;;9.50;7.32;;;;;;;;;;5014382;28;20061;-65
2022/05/03 03:35:48;;;;;;;8.93;6.90;;;;;;;;;;5014512;28;20042;-65
2022/05/03 03:38:14;;;;;;;8.70;7.10;;;;;;;;;;5013683;28;20099;-65
2022/05/03 03:40:45;;;;;;;9.93;6.90;;;;;;;;;;5014683;28;20037;-65
2022/05/03 03:43:11;;;;;;;10.52;7.03;;;;;;;;;;5014490;28;20069;-65
2022/05/03 03:45:37;;;;;;;9.77;6.65;;;;;;;;;;5013979;28;20133;-65
2022/05/03 03:48:04;;;;;;;8.75;6.82;;;;;;;;;;5014456;28;20052;-65
2022/05/03 03:50:31;;;;;;;10.27;6.80;;;;;;;;;;5014455;28;20673;-65
2022/05/03 03:52:57;;;;;;;12.05;7.53;;;;;;;;;;5012285;28;20045;-65
2022/05/03 03:55:23;;;;;;;8.30;6.38;;;;;;;;;;5014349;28;20520;-65
2022/05/03 03:57:50;;;;;;;12.45;7.32;;;;;;;;;;5014093;28;20041;-65
2022/05/03 04:00:17;;;;;;;10.93;7.65;;;;;;;;;;5012466;28;20460;-65
2022/05/03 04:02:44;;;;;;;13.15;7.75;;;;;;;;;;5014180;28;20046;-65
2022/05/03 04:05:14;;;;;;;10.25;7.93;;;;;;;;;;5013976;28;20065;-65
2022/05/03 04:07:40;;;;;;;11.75;7.72;;;;;;;;;;5013518;28;20790;-65
2022/05/03 04:10:06;;;;;;;11.65;7.78;;;;;;;;;;5014280;28;20367;-65
2022/05/03 04:12:32;;;;;;;10.60;8.20;;;;;;;;;;5013798;28;20168;-65
2022/05/03 04:14:58;;;;;;;12.93;8.00;;;;;;;;;;5013442;28;20029;-65
2022/05/03 04:17:24;;;;;;;12.02;8.93;;;;;;;;;;5013611;28;20393;-65
2022/05/03 04:19:51;;;;;;;12.40;8.27;;;;;;;;;;5013600;28;20057;-65
2022/05/03 04:22:27;;;;;;;11.27;8.63;;;;;;;;;;5012092;28;20048;-65
2022/05/03 04:24:53;;;;;;;13.98;8.32;;;;;;;;;;5013610;28;20038;-65
2022/05/03 04:27:23;;;;;;;10.55;7.95;;;;;;;;;;5013510;28;20116;-65
2022/05/03 04:29:49;;;;;;;14.27;8.68;;;;;;;;;;5012986;28;20042;-65
2022/05/03 04:32:16;;;;;;;12.40;8.65;;;;;;;;;;5013624;28;20165;-65
2022/05/03 04:34:42;;;;;;;12.85;9.48;;;;;;;;;;5013546;28;20124;-65
2022/05/03 04:37:08;;;;;;;12.63;9.00;;;;;;;;;;5012920;28;20096;-65
2022/05/03 04:39:34;;;;;;;12.48;9.57;;;;;;;;;;5013234;28;20042;-65
2022/05/03 04:42:00;;;;;;;15.68;9.85;;;;;;;;;;5013392;28;20037;-65
2022/05/03 04:44:27;;;;;;;14.35;9.75;;;;;;;;;;5012388;28;20041;-65
2022/05/03 04:46:53;;;;;;;16.00;9.70;;;;;;;;;;5013430;28;20065;-65
2022/05/03 04:49:19;;;;;;;15.02;9.85;;;;;;;;;;5013281;28;20046;-65
2022/05/03 04:51:45;;;;;;;12.50;10.18;;;;;;;;;;5012631;28;20045;-65
2022/05/03 04:54:11;;;;;;;14.20;10.45;;;;;;;;;;5013178;28;20073;-65
2022/05/03 04:56:37;;;;;;;12.90;10.27;;;;;;;;;;5012937;28;20085;-65
2022/05/03 04:59:04;;;;;;;14.35;11.10;;;;;;;;;;5012192;28;20053;-65
2022/05/03 05:01:30;;;;;;;13.13;11.02;;;;;;;;;;5012774;28;20081;-65
2022/05/03 05:03:56;;;;;;;15.52;11.23;;;;;;;;;;5012844;28;20584;-65
2022/05/03 05:06:22;;;;;;;15.18;11.30;;;;;;;;;;5011977;28;20061;-65
2022/05/03 05:08:48;;;;;;;17.95;12.45;;;;;;;;;;5012666;28;20373;-65
2022/05/03 05:11:14;;;;;;;17.35;11.93;;;;;;;;;;5012748;28;20481;-65
2022/05/03 05:13:41;;;;;;;18.55;12.75;;;;;;;;;;5012179;28;20037;-65
2022/05/03 05:16:08;;;;;;;20.42;12.55;;;;;;;;;;5012570;28;20046;-65
2022/05/03 05:18:34;;;;;;;18.35;13.25;;;;;;;;;;5012502;28;20048;-65
2022/05/03 05:21:00;;;;;;;17.10;12.45;;;;;;;;;;5011759;28;20041;-65
2022/05/03 05:23:26;;;;;;;21.85;13.68;;;;;;;;;;5012638;28;20041;-65
2022/05/03 05:25:54;;;;;;;18.23;13.50;;;;;;;;;;5012443;28;20034;-65
2022/05/03 05:28:21;;;;;;;23.33;14.32;;;;;;;;;;5011875;28;20045;-65
2022/05/03 05:30:49;;;;;;;22.40;15.00;;;;;;;;;;5012586;28;20046;-65
2022/05/03 05:33:15;;;;;;;22.50;14.63;;;;;;;;;;5012320;28;20042;-65
2022/05/03 05:35:41;;;;;;;19.48;13.68;;;;;;;;;;5011602;28;20061;-65
2022/05/03 05:38:07;;;;;;;21.35;14.02;;;;;;;;;;5012208;28;20457;-65
2022/05/03 05:40:33;;;;;;;22.80;16.40;;;;;;;;;;5012051;28;20164;-65
2022/05/03 05:43:00;;;;;;;24.00;16.45;;;;;;;;;;5011607;28;20181;-65
2022/05/03 05:45:27;;;;;;;26.35;15.57;;;;;;;;;;5012386;28;20048;-65
2022/05/03 05:47:53;;;;;;;23.33;15.77;;;;;;;;;;5011942;28;20068;-65
2022/05/03 05:50:19;;;;;;;23.48;16.90;;;;;;;;;;5011445;28;20042;-65
2022/05/03 05:55:30;;;;;;;22.92;15.77;;;;;;;;;;5010085;28;20046;-65
2022/05/03 05:57:56;;;;;;;23.75;17.27;;;;;;;;;;5010269;28;20041;-65
2022/05/03 06:00:22;;;;;;;26.15;17.65;;;;;;;;;;5011695;28;20125;-65
2022/05/03 06:02:48;;;;;;;27.33;17.80;;;;;;;;;;5011812;28;20049;-65
2022/05/03 06:05:14;;;;;;;26.65;17.40;;;;;;;;;;5010857;28;20125;-65
2022/05/03 06:07:40;;;;;;;28.50;17.88;;;;;;;;;;5011272;28;20697;-65
2022/05/03 06:10:07;;;;;;;26.75;17.67;;;;;;;;;;5010792;28;20308;-65
2022/05/03 06:12:33;;;;;;;29.13;19.00;;;;;;;;;;5010945;28;20096;-65
2022/05/03 06:14:59;;;;;;;35.97;20.13;;;;;;;;;;5001716;28;20115;-65
2022/05/03 06:17:25;;;;;;;30.17;19.50;;;;;;;;;;5011182;28;20046;-65
2022/05/03 06:19:51;;;;;;;31.52;19.80;;;;;;;;;;5005790;28;20099;-65
2022/05/03 06:22:17;;;;;;;32.35;19.02;;;;;;;;;;5011158;28;20412;-64
2022/05/03 06:24:46;;;;;;;35.10;19.48;;;;;;;;;;5011315;28;20045;-65
2022/05/03 06:27:12;;;;;;;34.08;19.60;;;;;;;;;;5010472;28;20049;-65
2022/05/03 06:29:38;;;;;;;31.05;19.50;;;;;;;;;;5011349;28;20041;-65
2022/05/03 06:32:04;;;;;;;35.38;20.10;;;;;;;;;;5010875;28;20488;-65
2022/05/03 06:34:30;;;;;;;37.25;20.83;;;;;;;;;;5010405;28;20053;-64
2022/05/03 06:36:56;;;;;;;35.42;20.33;;;;;;;;;;5011276;28;20083;-65
2022/05/03 06:39:22;;;;;;;33.40;20.67;;;;;;;;;;5011982;28;20160;-64
2022/05/03 06:41:48;;;;;;;37.65;21.15;;;;;;;;;;5010969;28;20052;-65
2022/05/03 06:44:14;;;;;;;40.70;20.88;;;;;;;;;;5010251;28;20458;-65
2022/05/03 06:46:40;;;;;;;41.08;21.52;;;;;;;;;;5011358;28;20038;-66
2022/05/03 06:49:07;;;;;;;35.45;21.80;;;;;;;;;;5012170;28;20030;-66
2022/05/03 06:51:33;;;;;;;38.03;22.35;;;;;;;;;;5012774;28;20468;-66
2022/05/03 06:54:01;;;;;;;35.95;20.35;;;;;;;;;;5014042;28;20064;-66
2022/05/03 06:56:27;;;;;;;33.97;21.52;;;;;;;;;;5013680;28;20053;-66
2022/05/03 06:58:53;;;;;;;35.33;20.48;;;;;;;;;;5013912;28;20087;-65
2022/05/03 07:01:19;;;;;;;33.72;20.92;;;;;;;;;;5014517;28;20392;-65
2022/05/03 07:03:45;;;;;;;36.83;21.85;;;;;;;;;;5023224;28;20049;-65
2022/05/03 07:06:11;;;;;;;37.17;20.80;;;;;;;;;;5012998;28;20069;-65
2022/05/03 07:08:38;;;;;;;46.65;22.45;;;;;;;;;;5014416;28;20042;-65
2022/05/03 07:11:05;;;;;;;48.63;25.02;;;;;;;;;;5013411;28;20153;-64
2022/05/03 07:13:31;;;;;;;52.20;25.17;;;;;;;;;;5013597;28;20077;-65
2022/05/03 07:15:57;;;;;;;53.17;25.77;;;;;;;;;;5014559;28;20049;-67
2022/05/03 07:23:54;;;;;;;62.88;27.30;;;;;;;;;;5015068;28;20132;-65
2022/05/03 07:26:20;;;;;;;63.70;27.95;;;;;;;;;;5011736;28;20156;-65
2022/05/03 07:28:48;;;;;;;63.03;26.42;;;;;;;;;;5013581;28;20038;-66
2022/05/03 07:31:15;;;;;;;65.47;26.75;;;;;;;;;;5013376;28;20053;-65
2022/05/03 07:33:41;;;;;;;66.80;26.98;;;;;;;;;;5013959;28;20402;-65
2022/05/03 07:36:07;;;;;;;58.65;25.58;;;;;;;;;;5013605;28;20053;-66
2022/05/03 07:38:34;;;;;;;62.83;26.55;;;;;;;;;;5013340;28;20038;-66
2022/05/03 07:41:00;;;;;;;68.05;28.55;;;;;;;;;;5016279;28;20380;-65
2022/05/03 07:43:27;;;;;;;91.57;33.30;;;;;;;;;;5014570;28;20172;-66
2022/05/03 07:45:54;;;;;;;82.45;32.95;;;;;;;;;;5013445;28;20046;-66
2022/05/03 07:48:20;;;;;;;74.78;30.42;;;;;;;;;;5013976;28;20045;-66
2022/05/03 07:50:47;;;;;;;75.85;32.20;;;;;;;;;;5016017;28;20041;-65
2022/05/03 07:53:13;;;;;;;73.07;31.75;;;;;;;;;;5014441;28;20048;-66
2022/05/03 07:55:39;;;;;;;68.72;31.13;;;;;;;;;;5010949;28;20064;-66
2022/05/03 07:58:06;;;;;;;60.20;28.90;;;;;;;;;;5015480;28;20069;-64
2022/05/03 08:00:32;;;;;;;71.53;29.75;;;;;;;;;;5014586;28;20053;-64
2022/05/03 08:02:58;;;;;;;56.13;28.95;;;;;;;;;;5012832;28;20050;-64
2022/05/03 08:05:24;;;;;;;54.92;27.95;;;;;;;;;;5012753;28;20066;-64
2022/05/03 08:07:51;;;;;;;56.08;28.55;;;;;;;;;;5011853;28;20049;-65
2022/05/03 08:10:17;;;;;;;60.70;28.48;;;;;;;;;;5013601;28;20499;-64
2022/05/03 08:12:50;;;;;;;54.17;27.23;;;;;;;;;;5014180;28;20049;-64
2022/05/03 08:15:17;;;;;;;53.08;27.85;;;;;;;;;;5012212;28;20056;-66
2022/05/03 08:17:43;;;;;;;53.42;25.00;;;;;;;;;;5012930;28;20072;-65
2022/05/03 08:20:09;;;;;;;42.67;21.42;;;;;;;;;;5012154;28;20042;-66
2022/05/03 08:22:35;;;;;;;33.35;16.85;;;;;;;;;;5013557;28;20046;-66
2022/05/03 08:25:01;;;;;;;36.85;15.52;;;;;;;;;;5012606;28;20080;-66
2022/05/03 08:27:30;;;;;;;28.70;14.23;;;;;;;;;;5012519;28;20049;-66
2022/05/03 08:29:57;;;;;;;21.75;10.32;;;;;;;;;;5012171;28;20431;-66
2022/05/03 08:32:23;;;;;;;20.02;7.63;;;;;;;;;;5012208;28;20042;-67
2022/05/03 08:34:49;;;;;;;19.55;7.53;;;;;;;;;;5011959;28;20515;-66
2022/05/03 08:42:46;;;;;;;13.13;5.93;;;;;;;;;;5015220;28;20084;-66
2022/05/03 08:45:12;;;;;;;12.55;6.20;;;;;;;;;;5012597;28;20084;-68
2022/05/03 08:47:38;;;;;;;15.32;6.20;;;;;;;;;;5011389;28;20500;-68
2022/05/03 08:50:09;;;;;;;16.65;5.93;;;;;;;;;;5010315;28;20384;-65
2022/05/03 08:52:39;;;;;;;17.38;6.03;;;;;;;;;;5011906;28;20040;-66
2022/05/03 08:55:06;;;;;;;12.07;5.85;;;;;;;;;;5010259;28;20564;-65
2022/05/03 08:57:33;;;;;;;15.63;6.22;;;;;;;;;;5011436;28;20038;-65
2022/05/03 09:00:00;;;;;;;10.93;5.93;;;;;;;;;;5010910;28;20113;-65
2022/05/03 09:02:26;;;;;;;11.00;6.00;;;;;;;;;;5010802;28;20515;-66
2022/05/03 09:04:52;;;;;;;16.80;6.05;;;;;;;;;;5011513;28;20046;-65
2022/05/03 09:07:20;;;;;;;14.95;6.20;;;;;;;;;;5010423;28;20057;-65
2022/05/03 09:09:46;;;;;;;14.10;6.68;;;;;;;;;;5008797;28;20096;-65
2022/05/03 09:12:26;;;;;;;13.10;7.00;;;;;;;;;;5010876;28;20389;-65
2022/05/03 09:14:55;;;;;;;13.85;6.78;;;;;;;;;;5008527;28;20095;-65
2022/05/03 09:17:40;;;;;;;15.93;6.70;;;;;;;;;;5010810;28;20045;-67
2022/05/03 09:26:12;;;;;;;13.77;7.32;;;;;;;;;;5012399;28;20124;-65
2022/05/03 09:28:43;;;;;;;19.38;7.35;;;;;;;;;;5013323;28;20133;-65
2022/05/03 09:31:09;;;;;;;16.73;6.75;;;;;;;;;;5012397;28;20053;-66
2022/05/03 09:33:37;;;;;;;24.05;7.70;;;;;;;;;;5013341;28;20042;-65
2022/05/03 09:36:10;;;;;;;17.17;7.47;;;;;;;;;;5013634;28;20038;-64
2022/05/03 09:38:51;;;;;;;19.20;8.45;;;;;;;;;;5012761;28;20042;-64
2022/05/03 09:41:18;;;;;;;20.90;8.48;;;;;;;;;;5014040;28;20042;-64
2022/05/03 09:44:04;;;;;;;15.20;7.05;;;;;;;;;;5017227;28;20065;-65
2022/05/03 09:46:31;;;;;;;19.05;7.90;;;;;;;;;;5006635;28;20384;-64
2022/05/03 09:48:58;;;;;;;23.85;7.45;;;;;;;;;;5013588;28;20482;-65
2022/05/03 09:51:25;;;;;;;18.70;7.32;;;;;;;;;;5011986;28;20362;-62
2022/05/03 09:53:58;;;;;;;21.10;7.65;;;;;;;;;;5011981;28;20048;-63
2022/05/03 09:56:25;;;;;;;18.48;6.70;;;;;;;;;;5009834;28;20037;-66
2022/05/03 09:58:55;;;;;;;19.02;7.47;;;;;;;;;;5013263;28;20038;-65
2022/05/03 10:01:22;;;;;;;25.17;7.13;;;;;;;;;;5010094;28;20033;-64
2022/05/03 10:03:48;;;;;;;15.40;6.65;;;;;;;;;;5010367;28;20045;-64
2022/05/03 10:06:14;;;;;;;17.33;6.13;;;;;;;;;;5010954;28;20054;-64
2022/05/03 10:08:41;;;;;;;21.10;6.68;;;;;;;;;;5013176;28;20111;-64
2022/05/03 10:11:07;;;;;;;16.83;6.70;;;;;;;;;;5011318;28;20045;-64
2022/05/03 10:13:33;;;;;;;19.80;6.72;;;;;;;;;;5012487;28;20469;-65
2022/05/03 10:21:35;;;;;;;16.63;6.70;;;;;;;;;;5016648;28;20042;-64
2022/05/03 10:24:13;;;;;;;21.02;6.80;;;;;;;;;;5017143;28;20671;-63
2022/05/03 10:27:05;;;;;;;22.77;8.07;;;;;;;;;;5015640;28;20034;-62
2022/05/03 10:29:33;;;;;;;17.83;6.72;;;;;;;;;;5012533;28;20034;-64
2022/05/03 10:32:08;;;;;;;22.05;6.00;;;;;;;;;;5005255;28;20438;-63
2022/05/03 10:34:40;;;;;;;19.65;7.65;;;;;;;;;;5010218;28;20041;-63
2022/05/03 10:37:16;;;;;;;19.75;7.63;;;;;;;;;;5008256;28;20044;-63
2022/05/03 10:39:49;;;;;;;17.50;6.70;;;;;;;;;;5007594;28;20033;-64
2022/05/03 10:42:16;;;;;;;14.07;5.93;;;;;;;;;;5010769;28;20053;-64
2022/05/03 10:44:45;;;;;;;18.75;6.35;;;;;;;;;;5010819;28;20069;-65
2022/05/03 10:47:13;;;;;;;14.73;5.32;;;;;;;;;;5010492;28;20103;-64
2022/05/03 10:50:09;;;;;;;13.43;5.38;;;;;;;;;;5010964;28;20038;-64
2022/05/03 10:52:35;;;;;;;12.38;4.35;;;;;;;;;;4993717;28;20108;-65
2022/05/03 10:55:05;;;;;;;17.80;5.28;;;;;;;;;;5009536;28;20061;-64
2022/05/03 10:57:31;;;;;;;17.98;4.75;;;;;;;;;;5013617;28;20049;-62
2022/05/03 10:59:57;;;;;;;14.77;4.93;;;;;;;;;;5012879;28;20081;-64
2022/05/03 11:02:23;;;;;;;13.85;4.65;;;;;;;;;;5013830;28;20441;-64
2022/05/03 11:05:08;;;;;;;14.98;5.07;;;;;;;;;;5013634;28;20074;-65
2022/05/03 11:07:36;;;;;;;12.68;4.60;;;;;;;;;;5012346;28;20073;-65
2022/05/03 11:10:20;;;;;;;17.55;4.93;;;;;;;;;;5012172;28;20050;-63
2022/05/03 11:12:49;;;;;;;16.50;4.72;;;;;;;;;;5009281;28;20046;-61
2022/05/03 11:15:15;;;;;;;19.38;4.88;;;;;;;;;;5010257;28;20061;-61
2022/05/03 11:17:42;;;;;;;18.80;4.60;;;;;;;;;;5010260;28;20361;-66
2022/05/03 11:20:08;;;;;;;12.77;4.50;;;;;;;;;;5010787;28;20038;-66
2022/05/03 11:22:35;;;;;;;13.75;4.22;;;;;;;;;;5007729;28;20424;-66
2022/05/03 11:25:12;;;;;;;18.92;4.75;;;;;;;;;;5011284;28;20096;-67
2022/05/03 11:27:39;;;;;;;10.23;3.70;;;;;;;;;;5011936;28;20038;-64
2022/05/03 11:30:14;;;;;;;18.08;4.57;;;;;;;;;;5013573;28;20045;-67
2022/05/03 11:32:42;;;;;;;14.48;4.00;;;;;;;;;;5015977;28;20045;-67
2022/05/03 11:35:09;;;;;;;13.43;4.70;;;;;;;;;;5015766;28;20053;-65
2022/05/03 11:37:36;;;;;;;16.30;4.95;;;;;;;;;;5017135;28;20380;-65
2022/05/03 11:40:05;;;;;;;20.92;4.32;;;;;;;;;;5016330;28;20058;-64
2022/05/03 11:42:42;;;;;;;16.42;4.32;;;;;;;;;;5018308;28;20042;-65
2022/05/03 11:45:08;;;;;;;13.43;4.30;;;;;;;;;;5016539;28;20348;-65
2022/05/03 11:47:38;;;;;;;11.93;3.53;;;;;;;;;;5016509;28;20038;-62
2022/05/03 11:50:05;;;;;;;15.82;4.45;;;;;;;;;;5016499;28;20099;-62
2022/05/03 11:58:00;;;;;;;13.98;3.50;;;;;;;;;;5019672;28;20042;-63
2022/05/03 12:00:26;;;;;;;9.77;2.90;;;;;;;;;;5017539;28;20042;-64
2022/05/03 12:02:52;;;;;;;11.25;3.25;;;;;;;;;;5019843;28;20042;-66
2022/05/03 12:05:19;;;;;;;11.32;3.17;;;;;;;;;;5014240;28;20057;-65
2022/05/03 12:07:50;;;;;;;9.23;3.13;;;;;;;;;;5013132;28;20057;-66
2022/05/03 12:10:16;;;;;;;9.82;3.42;;;;;;;;;;5012468;28;20029;-66
2022/05/03 12:12:43;;;;;;;6.60;2.95;;;;;;;;;;5020974;28;20116;-67
2022/05/03 12:15:12;;;;;;;9.77;2.67;;;;;;;;;;5019508;28;20037;-65
2022/05/03 12:17:52;;;;;;;10.18;3.08;;;;;;;;;;5015807;28;20030;-65
2022/05/03 12:20:18;;;;;;;9.27;2.80;;;;;;;;;;5015499;28;20048;-64
2022/05/03 12:22:44;;;;;;;11.98;3.50;;;;;;;;;;5017098;28;20049;-66
2022/05/03 12:25:10;;;;;;;6.97;2.83;;;;;;;;;;5014118;28;20502;-67
2022/05/03 12:27:47;;;;;;;9.35;2.80;;;;;;;;;;5012873;28;20069;-66
2022/05/03 12:30:15;;;;;;;8.30;3.15;;;;;;;;;;5015182;28;20042;-64
2022/05/03 12:32:41;;;;;;;7.80;2.53;;;;;;;;;;5019297;28;20669;-65
2022/05/03 12:35:07;;;;;;;10.35;2.78;;;;;;;;;;5018133;28;20048;-65
2022/05/03 12:37:49;;;;;;;8.93;2.60;;;;;;;;;;5018467;28;20046;-65
2022/05/03 12:40:23;;;;;;;8.50;2.77;;;;;;;;;;5013814;28;20045;-65
2022/05/03 12:42:49;;;;;;;8.10;2.13;;;;;;;;;;5012551;28;20041;-66
2022/05/03 12:45:19;;;;;;;7.57;2.40;;;;;;;;;;5013471;28;20395;-66
2022/05/03 12:47:48;;;;;;;11.85;2.38;;;;;;;;;;5014719;28;20054;-64
2022/05/03 12:50:14;;;;;;;10.48;2.67;;;;;;;;;;5029342;28;20433;-64
2022/05/03 12:52:40;;;;;;;7.35;2.53;;;;;;;;;;5013862;28;20085;-63
2022/05/03 12:55:06;;;;;;;8.93;2.45;;;;;;;;;;5013179;28;20037;-64
2022/05/03 13:00:17;;;;;;;6.97;2.25;;;;;;;;;;5014157;28;20042;-65
2022/05/03 13:02:43;;;;;;;8.63;2.22;;;;;;;;;;5012150;28;20067;-65
2022/05/03 13:05:09;;;;;;;7.47;2.38;;;;;;;;;;5012442;28;20514;-65
2022/05/03 13:07:35;;;;;;;10.00;2.50;;;;;;;;;;5014132;28;20053;-65
2022/05/03 13:10:01;;;;;;;9.05;2.30;;;;;;;;;;5013013;28;20385;-64
2022/05/03 13:12:27;;;;;;;9.05;2.88;;;;;;;;;;5013363;28;20072;-65
2022/05/03 13:14:54;;;;;;;5.70;2.17;;;;;;;;;;5011299;28;20040;-65
2022/05/03 13:17:20;;;;;;;5.38;2.10;;;;;;;;;;5013536;28;20034;-65
2022/05/03 13:19:46;;;;;;;9.23;2.03;;;;;;;;;;5015558;28;20037;-66
2022/05/03 13:22:12;;;;;;;9.38;2.15;;;;;;;;;;5010872;28;20046;-65
2022/05/03 13:24:38;;;;;;;7.25;2.10;;;;;;;;;;5012129;28;20116;-64
2022/05/03 13:27:04;;;;;;;5.90;1.80;;;;;;;;;;5013148;28;20041;-65
2022/05/03 13:29:31;;;;;;;5.25;1.95;;;;;;;;;;5012629;28;20584;-64
2022/05/03 13:31:57;;;;;;;10.48;2.20;;;;;;;;;;5012490;28;20070;-65
2022/05/03 13:34:23;;;;;;;5.80;1.95;;;;;;;;;;5012401;28;20045;-63
2022/05/03 13:42:18;;;;;;;6.97;2.00;;;;;;;;;;5011519;28;20081;-66
2022/05/03 13:44:44;;;;;;;6.55;1.92;;;;;;;;;;5010843;28;20461;-65
2022/05/03 13:47:12;;;;;;;6.43;2.20;;;;;;;;;;5010934;28;20038;-65
2022/05/03 13:49:38;;;;;;;5.70;1.75;;;;;;;;;;5010830;28;20042;-63
2022/05/03 13:52:05;;;;;;;6.30;2.17;;;;;;;;;;5008476;28;20094;-65
2022/05/03 13:54:31;;;;;;;6.90;2.10;;;;;;;;;;5027527;28;20389;-65
2022/05/03 13:56:57;;;;;;;10.25;2.40;;;;;;;;;;5011489;28;20041;-65
2022/05/03 13:59:23;;;;;;;5.03;1.92;;;;;;;;;;5010276;28;20034;-65
2022/05/03 14:01:50;;;;;;;6.30;2.10;;;;;;;;;;5011745;28;20046;-64
2022/05/03 14:04:16;;;;;;;10.43;2.30;;;;;;;;;;5010947;28;20073;-63
2022/05/03 14:06:42;;;;;;;7.10;1.95;;;;;;;;;;5008363;28;20072;-63
2022/05/03 14:09:08;;;;;;;6.60;1.90;;;;;;;;;;5013770;28;20057;-64
2022/05/03 14:11:34;;;;;;;7.28;2.13;;;;;;;;;;5017362;28;20080;-62
2022/05/03 14:14:00;;;;;;;6.55;2.13;;;;;;;;;;5018092;28;20556;-63
2022/05/03 14:16:30;;;;;;;6.88;2.45;;;;;;;;;;5013008;28;20068;-65
2022/05/03 14:18:57;;;;;;;4.70;2.22;;;;;;;;;;5011724;28;20553;-64
2022/05/03 14:21:23;;;;;;;5.97;2.13;;;;;;;;;;5010030;28;20125;-64
2022/05/03 14:23:49;;;;;;;5.88;2.05;;;;;;;;;;5009846;28;20085;-65
2022/05/03 14:26:15;;;;;;;7.05;2.00;;;;;;;;;;5009342;28;20042;-65
2022/05/03 14:28:43;;;;;;;8.15;2.15;;;;;;;;;;5008141;28;20068;-63
2022/05/03 14:31:11;;;;;;;8.77;2.03;;;;;;;;;;5011417;28;20050;-65
2022/05/03 14:33:37;;;;;;;10.85;2.17;;;;;;;;;;5010706;28;20081;-65
2022/05/03 14:36:03;;;;;;;7.10;1.85;;;;;;;;;;5009710;28;20176;-65
2022/05/03 14:38:29;;;;;;;5.60;1.95;;;;;;;;;;5012728;28;20038;-64
2022/05/03 14:40:55;;;;;;;5.90;2.22;;;;;;;;;;5010515;28;20045;-64
2022/05/03 14:43:21;;;;;;;10.85;2.00;;;;;;;;;;5010320;28;20129;-65
2022/05/03 14:45:48;;;;;;;7.47;2.05;;;;;;;;;;5011144;28;20405;-64
2022/05/03 14:48:14;;;;;;;6.80;2.28;;;;;;;;;;5011436;28;20049;-65
2022/05/03 14:50:40;;;;;;;6.60;2.05;;;;;;;;;;5011889;28;20053;-64
2022/05/03 14:53:07;;;;;;;6.32;2.08;;;;;;;;;;5011921;28;20408;-63
2022/05/03 14:55:33;;;;;;;7.50;2.28;;;;;;;;;;5012154;28;20042;-64
2022/05/03 15:03:29;;;;;;;9.32;2.30;;;;;;;;;;5010246;28;20424;-66
2022/05/03 15:05:56;;;;;;;18.20;2.50;;;;;;;;;;5011195;28;20058;-66
2022/05/03 15:08:22;;;;;;;7.45;2.00;;;;;;;;;;5014528;28;20109;-66
2022/05/03 15:10:48;;;;;;;4.70;2.10;;;;;;;;;;5014412;28;20045;-66
2022/05/03 15:13:14;;;;;;;9.15;2.10;;;;;;;;;;5013856;28;20041;-66
2022/05/03 15:15:41;;;;;;;7.25;2.50;;;;;;;;;;5014746;28;20042;-66
2022/05/03 15:18:07;;;;;;;7.60;2.28;;;;;;;;;;5014514;28;20155;-66
2022/05/03 15:20:34;;;;;;;5.53;2.25;;;;;;;;;;5013119;28;20589;-67
2022/05/03 15:25:46;;;;;;;7.32;2.30;;;;;;;;;;5005758;28;20704;-67
2022/05/03 15:28:13;;;;;;;6.80;2.30;;;;;;;;;;5013747;28;20041;-67
2022/05/03 15:30:39;;;;;;;10.48;2.28;;;;;;;;;;5013788;28;20045;-66